Time;durP1;ratioP1;P1;durP2;ratioP2;P2;SDS_P1;SDS_P2;PMS_P1;PMS_P2;Temp;Humidity;BMP_temperature;BMP_pressure;BME280_temperature;BME280_humidity;BME280_pressure;Samples;Min_cycle;Max_cycle;Signal;HPM_P1;HPM_P2
2022/09/16 00:03:58;;;;;;;16.57;10.23;;;;;;;13.09;100.00;98001.91;4402384;79;20974;-82
2022/09/16 00:10:02;;;;;;;20.40;10.20;;;;;;;12.92;100.00;98005.04;4399132;79;20975;-83
2022/09/16 00:16:09;;;;;;;13.18;9.53;;;;;;;13.01;100.00;98014.19;4384335;79;21084;-83
2022/09/16 00:22:12;;;;;;;18.65;10.58;;;;;;;12.98;100.00;98018.52;4387588;79;21067;-83
2022/09/16 00:28:13;;;;;;;22.50;10.05;;;;;;;12.99;100.00;98017.91;4387308;79;21022;-83
2022/09/16 00:40:48;;;;;;;19.15;9.75;;;;;;;13.18;100.00;98022.77;4368907;79;20967;-83
2022/09/16 00:46:50;;;;;;;12.75;8.88;;;;;;;13.22;100.00;98033.88;4406042;80;20997;-83
2022/09/16 00:52:57;;;;;;;13.08;9.50;;;;;;;13.25;100.00;98029.55;4377778;79;20982;-83
2022/09/16 00:59:25;;;;;;;15.38;8.75;;;;;;;13.30;100.00;98031.80;4379482;79;21008;-84
2022/09/16 01:05:28;;;;;;;18.53;9.97;;;;;;;13.31;100.00;98032.76;4387769;79;21064;-83
2022/09/16 01:11:30;;;;;;;22.22;11.40;;;;;;;13.32;100.00;98034.34;4383305;79;21436;-85
2022/09/16 01:18:08;;;;;;;20.05;9.28;;;;;;;13.34;100.00;98042.16;4376619;79;20995;-83
2022/09/16 01:24:30;;;;;;;15.83;9.48;;;;;;;13.34;100.00;98040.79;4227272;83;20970;-83
2022/09/16 01:31:02;;;;;;;16.25;9.43;;;;;;;13.34;100.00;98049.03;4265104;82;21964;-83
2022/09/16 01:37:19;;;;;;;13.18;9.65;;;;;;;13.35;100.00;98054.70;4394574;79;20971;-83
2022/09/16 01:43:39;;;;;;;14.38;8.98;;;;;;;13.30;100.00;98053.79;4219146;82;21091;-83
2022/09/16 01:49:58;;;;;;;15.80;9.10;;;;;;;13.30;100.00;98048.30;4221461;82;21012;-83
2022/09/16 01:56:29;;;;;;;16.05;9.03;;;;;;;13.32;100.00;98054.16;4404611;79;22326;-83
2022/09/16 02:02:55;;;;;;;13.10;8.93;;;;;;;13.34;100.00;98044.30;4373856;79;21144;-83
2022/09/16 02:09:05;;;;;;;14.55;8.95;;;;;;;13.32;100.00;98037.67;4406164;79;21036;-82
2022/09/16 02:15:11;;;;;;;14.28;8.50;;;;;;;13.30;100.00;98034.55;4404286;79;21033;-83
2022/09/16 02:21:14;;;;;;;;;;;;;;;13.26;100.00;98049.74;4442694;79;20968;-83
2022/09/16 02:27:21;;;;;;;18.27;8.50;;;;;;;13.23;100.00;98056.07;4417601;79;20112;-83
2022/09/16 02:40:28;;;;;;;15.25;8.75;;;;;;;12.90;100.00;98062.38;4430915;80;21008;-83
2022/09/16 02:46:45;;;;;;;21.33;9.18;;;;;;;12.84;100.00;98059.13;4410286;78;20989;-83
2022/09/16 02:53:01;;;;;;;14.50;7.75;;;;;;;12.85;100.00;98049.68;4395272;78;40835;-83
2022/09/16 02:59:06;;;;;;;10.68;8.40;;;;;;;12.89;100.00;98059.43;4360068;80;20951;-83
2022/09/16 03:05:08;;;;;;;12.68;8.20;;;;;;;12.96;100.00;98067.59;4334267;79;20951;-83
2022/09/16 03:11:34;;;;;;;14.95;8.40;;;;;;;12.80;100.00;98062.49;4344307;80;20998;-85
2022/09/16 03:18:21;;;;;;;16.45;7.80;;;;;;;12.81;100.00;98053.08;4337025;80;21022;-83
2022/09/16 03:24:58;;;;;;;;;;;;;;;12.83;100.00;98048.72;4350529;80;21498;-85
2022/09/16 03:31:07;;;;;;;15.40;8.18;;;;;;;12.84;100.00;98054.42;4369947;79;20116;-83
2022/09/16 03:37:14;;;;;;;9.05;6.87;;;;;;;12.81;100.00;98053.84;4385108;79;21019;-83
2022/09/16 03:43:16;;;;;;;12.43;7.22;;;;;;;12.80;100.00;98046.02;4382412;79;20990;-82
2022/09/16 03:49:19;;;;;;;10.58;7.45;;;;;;;12.70;100.00;98043.58;4379237;79;22397;-83
2022/09/16 03:55:21;;;;;;;18.70;9.50;;;;;;;12.77;100.00;98050.95;4382000;79;21063;-83
2022/09/16 04:01:22;;;;;;;14.35;7.00;;;;;;;12.79;100.00;98055.45;4379356;79;21009;-83
2022/09/16 04:07:24;;;;;;;12.75;7.83;;;;;;;12.73;100.00;98039.25;4436142;79;21009;-83
2022/09/16 04:13:27;;;;;;;13.53;9.03;;;;;;;12.76;100.00;98047.45;4383701;79;20930;-83
2022/09/16 04:19:42;;;;;;;15.13;8.48;;;;;;;12.68;100.00;98061.09;4383683;79;20942;-82
2022/09/16 04:25:43;;;;;;;13.78;9.08;;;;;;;12.68;100.00;98065.96;4364982;79;20967;-83
2022/09/16 04:31:45;;;;;;;12.58;9.15;;;;;;;12.64;100.00;98074.84;4342041;79;20997;-83
2022/09/16 04:37:46;;;;;;;14.40;9.53;;;;;;;12.58;100.00;98086.10;4361807;80;20981;-82
2022/09/16 04:43:56;;;;;;;15.35;10.15;;;;;;;12.52;100.00;98091.86;4371058;80;21427;-83
2022/09/16 04:49:58;;;;;;;15.45;9.73;;;;;;;12.38;100.00;98092.02;4354136;80;21110;-82
2022/09/16 04:56:14;;;;;;;15.78;10.98;;;;;;;12.30;100.00;98100.71;4361571;80;21045;-82
2022/09/16 05:02:13;;;;;;;23.22;11.57;;;;;;;12.32;100.00;98092.86;4356238;82;20982;-82
2022/09/16 05:08:15;;;;;;;20.25;11.97;;;;;;;12.24;100.00;98094.11;4342638;80;21346;-83
2022/09/16 05:14:17;;;;;;;18.37;12.33;;;;;;;12.25;100.00;98101.94;4356218;80;21137;-83
2022/09/16 05:20:19;;;;;;;16.87;11.48;;;;;;;12.31;100.00;98098.93;4374482;80;20978;-82
2022/09/16 05:26:27;;;;;;;14.78;10.35;;;;;;;12.40;100.00;98097.09;4353342;80;21021;-82
2022/09/16 05:32:28;;;;;;;14.55;10.68;;;;;;;12.50;100.00;98090.11;4378206;79;21029;-83
2022/09/16 05:38:31;;;;;;;12.88;8.08;;;;;;;12.64;100.00;98096.81;4382486;79;21021;-82
2022/09/16 05:44:33;;;;;;;11.10;7.42;;;;;;;12.77;100.00;98099.80;4279857;82;21021;-82
2022/09/16 05:50:34;;;;;;;10.48;6.85;;;;;;;12.89;100.00;98097.88;4205343;83;20983;-82
2022/09/16 05:56:36;;;;;;;7.75;6.17;;;;;;;13.06;100.00;98093.41;4372363;79;21006;-82
2022/09/16 06:02:37;;;;;;;10.85;7.20;;;;;;;13.14;100.00;98086.63;4395873;79;21012;-82
2022/09/16 06:08:40;;;;;;;8.63;6.85;;;;;;;13.30;100.00;98073.81;4280320;82;20963;-83
2022/09/16 06:14:41;;;;;;;10.68;7.25;;;;;;;13.49;100.00;98067.65;4199993;83;21609;-84
2022/09/16 06:20:42;;;;;;;10.23;5.15;;;;;;;13.68;100.00;98077.96;4409543;78;21055;-82
2022/09/16 06:26:46;;;;;;;11.75;4.75;;;;;;;13.84;100.00;98082.81;4464632;78;21856;-83
2022/09/16 06:32:48;;;;;;;8.18;4.70;;;;;;;13.98;100.00;98086.09;4427056;78;21040;-82
2022/09/16 06:38:51;;;;;;;7.22;4.00;;;;;;;14.14;100.00;98090.34;4285949;81;21891;-82
2022/09/16 06:44:53;;;;;;;9.00;3.83;;;;;;;14.28;100.00;98073.44;4215275;83;21065;-82
2022/09/16 06:51:04;;;;;;;5.90;3.27;;;;;;;14.40;100.00;98078.31;4282610;82;20986;-82
2022/09/16 06:57:06;;;;;;;6.72;2.77;;;;;;;14.58;100.00;98071.89;4300821;81;21599;-82
2022/09/16 07:03:08;;;;;;;9.00;3.17;;;;;;;14.60;100.00;98072.22;4207787;83;20996;-83
2022/09/16 07:09:11;;;;;;;5.33;2.60;;;;;;;14.74;100.00;98077.45;4262824;81;21028;-82
2022/09/16 07:15:13;;;;;;;5.47;2.40;;;;;;;14.84;100.00;98082.77;4260244;81;21005;-82
2022/09/16 07:21:19;;;;;;;5.50;2.30;;;;;;;15.05;100.00;98087.06;4254628;81;21021;-83
2022/09/16 07:27:25;;;;;;;4.72;1.98;;;;;;;15.16;100.00;98082.10;4410946;79;21056;-83
2022/09/16 07:33:31;;;;;;;4.05;2.58;;;;;;;15.25;100.00;98083.67;4412484;79;21051;-83
2022/09/16 07:39:34;;;;;;;5.83;2.80;;;;;;;15.34;100.00;98079.72;4367124;80;21561;-84
2022/09/16 07:45:36;;;;;;;6.15;2.75;;;;;;;15.55;100.00;98074.52;4429565;79;20997;-80
2022/09/16 07:51:37;;;;;;;2.45;2.20;;;;;;;16.01;100.00;98077.55;4373274;79;20955;-83
2022/09/16 07:57:39;;;;;;;4.42;2.58;;;;;;;15.78;100.00;98080.50;4382415;79;21052;-83
2022/09/16 08:03:42;;;;;;;4.37;2.80;;;;;;;16.02;100.00;98090.76;4435818;79;21408;-82
2022/09/16 08:09:44;;;;;;;8.15;3.10;;;;;;;16.23;100.00;98088.23;4413967;79;21039;-85
2022/09/16 08:15:47;;;;;;;7.47;2.83;;;;;;;16.49;100.00;98092.69;4412050;79;22204;-84
2022/09/16 08:21:48;;;;;;;6.35;2.90;;;;;;;16.71;100.00;98090.14;4423650;79;21045;-83
2022/09/16 08:27:50;;;;;;;7.25;2.70;;;;;;;16.70;100.00;98110.69;4423923;79;20996;-82
2022/09/16 08:33:52;;;;;;;4.70;3.20;;;;;;;16.68;99.13;98110.34;4463916;78;20990;-82
2022/09/16 08:39:55;;;;;;;7.15;3.40;;;;;;;16.53;98.07;98109.17;4471903;78;21003;-82
2022/09/16 08:46:32;;;;;;;5.00;2.92;;;;;;;16.63;98.23;98095.06;4468470;78;21010;-82
2022/09/16 08:52:37;;;;;;;7.37;2.73;;;;;;;16.82;97.34;98097.51;4451687;78;21047;-82
2022/09/16 08:58:45;;;;;;;4.78;2.60;;;;;;;16.81;96.28;98102.28;4454927;78;21049;-82
2022/09/16 09:04:46;;;;;;;8.30;2.77;;;;;;;16.53;95.43;98099.51;4449232;78;20948;-83
2022/09/16 09:11:13;;;;;;;7.75;2.80;;;;;;;16.25;95.01;98100.22;4360159;80;21026;-82
2022/09/16 09:17:43;;;;;;;5.03;2.60;;;;;;;16.02;94.04;98103.18;4367705;80;20915;-82
2022/09/16 09:24:22;;;;;;;6.75;3.17;;;;;;;15.80;94.46;98112.58;4373485;80;20996;-81
2022/09/16 09:30:27;;;;;;;4.83;3.25;;;;;;;15.75;94.68;98097.91;4464901;78;21022;-82
2022/09/16 09:36:46;;;;;;;8.55;3.60;;;;;;;15.84;94.83;98107.74;4457741;78;21002;-82
2022/09/16 09:43:06;;;;;;;6.12;3.08;;;;;;;15.89;94.44;98104.47;4428859;78;46348;-83
2022/09/16 09:49:30;;;;;;;5.78;3.42;;;;;;;15.91;94.51;98119.22;4236284;82;21000;-83
2022/09/16 09:55:34;;;;;;;5.67;3.70;;;;;;;15.97;94.65;98111.37;4241338;82;21042;-82
2022/09/16 10:01:36;;;;;;;4.37;3.25;;;;;;;15.95;94.53;98102.74;4244794;82;21027;-82
2022/09/16 10:07:38;;;;;;;6.50;3.22;;;;;;;15.84;94.04;98110.50;4446761;77;22614;-81
2022/09/16 10:13:47;;;;;;;9.38;3.37;;;;;;;15.75;93.87;98110.92;4452496;79;20991;-82
2022/09/16 10:20:18;;;;;;;3.85;2.70;;;;;;;15.80;94.26;98112.58;4451908;80;21563;-81
2022/09/16 10:26:24;;;;;;;5.20;2.55;;;;;;;15.74;93.96;98101.11;4480346;78;20997;-82
2022/09/16 10:32:26;;;;;;;5.42;2.80;;;;;;;15.86;94.28;98099.81;4444114;78;21601;-82
2022/09/16 10:38:41;;;;;;;5.78;2.75;;;;;;;16.38;94.13;98092.16;4422215;79;21043;-82
2022/09/16 10:44:45;;;;;;;6.25;2.62;;;;;;;16.94;93.29;98083.72;4431623;79;21129;-82
2022/09/16 10:51:00;;;;;;;4.53;3.25;;;;;;;17.92;93.48;98074.41;4421208;79;21005;-82
2022/09/16 10:57:07;;;;;;;6.25;2.72;;;;;;;18.73;92.35;98077.80;4430507;79;20990;-82
2022/09/16 11:03:34;;;;;;;;;;;;;;;18.67;90.05;98076.20;4434351;79;20983;-82
2022/09/16 11:10:14;;;;;;;4.70;1.60;;;;;;;18.59;89.55;98074.30;4361724;79;20151;-83
2022/09/16 11:16:39;;;;;;;5.80;1.47;;;;;;;18.46;88.15;98074.20;4327494;81;20987;-83
2022/09/16 11:22:53;;;;;;;4.05;1.70;;;;;;;18.58;87.37;98070.00;4299758;81;20966;-82
2022/09/16 11:29:24;;;;;;;5.50;1.62;;;;;;;18.66;87.00;98073.28;4271886;80;20991;-83
2022/09/16 11:35:45;;;;;;;4.28;1.50;;;;;;;18.50;85.60;98066.53;4369810;80;21009;-81
2022/09/16 11:42:26;;;;;;;3.17;1.37;;;;;;;18.42;84.48;98063.23;4298585;81;21023;-83
2022/09/16 11:49:12;;;;;;;5.33;1.62;;;;;;;18.23;84.25;98056.55;4373587;80;21548;-82
2022/09/16 11:55:54;;;;;;;5.28;1.55;;;;;;;18.34;84.07;98043.89;4370541;80;21106;-83
2022/09/16 12:02:16;;;;;;;2.35;1.20;;;;;;;18.36;83.95;98052.54;4370488;80;22034;-83
2022/09/16 12:08:49;;;;;;;4.62;1.50;;;;;;;18.42;83.40;98050.77;4370706;80;21470;-81
2022/09/16 12:14:57;;;;;;;3.42;1.47;;;;;;;18.27;81.84;98050.30;4369113;80;21051;-82
2022/09/16 12:21:13;;;;;;;7.87;1.40;;;;;;;17.91;81.36;98054.09;4373259;80;21055;-82
2022/09/16 12:27:39;;;;;;;4.25;1.90;;;;;;;17.65;81.28;98047.80;4377476;80;21042;-83
2022/09/16 12:34:01;;;;;;;2.90;1.60;;;;;;;16.82;80.80;98079.55;4306928;80;21067;-82
2022/09/16 12:40:16;;;;;;;2.70;1.47;;;;;;;16.08;81.57;98074.63;4375423;80;21059;-82
2022/09/16 12:47:10;;;;;;;3.20;1.70;;;;;;;15.63;81.96;98057.98;4379694;80;21853;-82
2022/09/16 12:53:48;;;;;;;6.03;1.65;;;;;;;15.52;82.62;98064.94;4195540;83;21001;-82
2022/09/16 13:00:22;;;;;;;4.08;1.87;;;;;;;15.65;83.89;98061.69;4217962;83;20944;-82
2022/09/16 13:06:32;;;;;;;2.30;1.15;;;;;;;15.72;83.48;98049.70;4130562;85;21067;-82
2022/09/16 13:12:35;;;;;;;3.45;1.25;;;;;;;15.65;83.19;98042.37;4225924;83;21322;-81
2022/09/16 13:18:55;;;;;;;3.33;1.45;;;;;;;15.53;83.40;98043.82;4120186;85;21077;-82
2022/09/16 13:25:32;;;;;;;3.20;1.40;;;;;;;15.46;83.78;98043.22;4185856;83;20974;-83
2022/09/16 13:31:41;;;;;;;2.90;1.67;;;;;;;15.50;84.51;98041.17;4187762;83;21015;-82
2022/09/16 13:37:46;;;;;;;4.05;1.92;;;;;;;15.55;85.26;98048.31;4210565;83;20981;-82
2022/09/16 13:43:52;;;;;;;4.83;2.20;;;;;;;15.55;85.41;98031.77;4219411;83;21461;-80
2022/09/16 13:50:09;;;;;;;8.90;2.30;;;;;;;15.55;85.28;98037.28;4240196;81;21079;-82
2022/09/16 13:56:44;;;;;;;3.92;2.17;;;;;;;15.60;85.35;98025.73;4151591;83;22547;-82
2022/09/16 14:03:19;;;;;;;6.05;2.30;;;;;;;15.70;85.54;98026.69;4244868;82;21069;-83
2022/09/16 14:09:51;;;;;;;3.90;1.90;;;;;;;15.80;85.82;98023.50;4283927;81;21346;-82
2022/09/16 14:15:56;;;;;;;2.80;2.30;;;;;;;15.87;85.67;98019.16;4290397;81;21059;-82
2022/09/16 14:22:15;;;;;;;2.80;2.10;;;;;;;15.86;85.94;98017.03;4292992;81;21016;-83
2022/09/16 14:28:26;;;;;;;5.53;2.37;;;;;;;15.87;85.84;98012.27;4307158;81;22028;-83
2022/09/16 14:34:35;;;;;;;5.37;2.67;;;;;;;15.82;85.63;98004.53;4304131;81;21012;-82
2022/09/16 14:40:38;;;;;;;5.20;3.02;;;;;;;15.78;86.14;98003.83;4303987;81;20973;-83
2022/09/16 14:46:51;;;;;;;9.45;4.15;;;;;;;15.87;86.59;98002.02;4301584;81;21603;-82
2022/09/16 14:53:02;;;;;;;7.15;5.03;;;;;;;15.92;86.31;98000.11;4303495;81;20996;-83
2022/09/16 14:59:04;;;;;;;7.42;4.87;;;;;;;15.89;86.58;97987.19;4337297;80;21060;-82
2022/09/16 15:05:37;;;;;;;8.15;4.80;;;;;;;15.86;86.19;97988.64;4295418;81;21041;-82
2022/09/16 15:11:52;;;;;;;6.05;3.37;;;;;;;15.84;86.84;97973.91;4222352;82;21012;-81
2022/09/16 15:18:12;;;;;;;4.22;3.05;;;;;;;15.90;87.03;97981.04;4241490;82;21045;-83
2022/09/16 15:24:34;;;;;;;5.78;3.30;;;;;;;15.95;86.48;97984.66;4236721;82;21016;-83
2022/09/16 15:30:49;;;;;;;6.75;3.35;;;;;;;15.97;86.79;97979.48;4236786;82;21024;-82
2022/09/16 15:36:57;;;;;;;4.47;2.33;;;;;;;15.85;87.09;97969.92;4241151;82;21406;-84
2022/09/16 15:43:24;;;;;;;6.60;2.60;;;;;;;15.71;87.19;97963.39;4207956;82;21017;-82
2022/09/16 15:49:28;;;;;;;5.03;2.50;;;;;;;15.64;86.44;97960.83;4233662;82;21088;-83
2022/09/16 15:55:39;;;;;;;4.42;2.10;;;;;;;15.59;85.62;97961.34;4249611;82;21036;-83
2022/09/16 16:01:47;;;;;;;3.77;2.10;;;;;;;15.52;84.51;97949.88;4242181;82;21124;-83
2022/09/16 16:07:56;;;;;;;3.37;1.72;;;;;;;15.49;84.45;97957.64;4231027;82;21571;-82
2022/09/16 16:13:58;;;;;;;4.80;2.20;;;;;;;15.37;84.00;97963.05;4224971;82;20966;-82
2022/09/16 16:20:01;;;;;;;3.45;2.55;;;;;;;15.33;84.89;97960.98;4210062;82;22009;-83
2022/09/16 16:26:08;;;;;;;7.25;2.62;;;;;;;15.29;85.40;97961.07;4236938;82;22238;-82
2022/09/16 16:32:14;;;;;;;4.40;2.30;;;;;;;15.19;85.22;97967.59;4217455;82;21057;-82
2022/09/16 16:38:15;;;;;;;5.53;2.67;;;;;;;15.06;85.76;97975.60;4252355;82;21494;-82
2022/09/16 16:44:16;;;;;;;4.67;3.00;;;;;;;14.97;86.95;97974.80;4246084;82;21516;-82
2022/09/16 16:50:18;;;;;;;4.00;2.75;;;;;;;14.80;86.74;97977.97;4224592;82;21041;-83
2022/09/16 16:56:19;;;;;;;4.87;2.90;;;;;;;14.74;87.23;97970.80;4226751;82;21064;-82
2022/09/16 17:02:21;;;;;;;4.80;2.92;;;;;;;14.60;87.16;97978.58;4287830;82;20973;-82
2022/09/16 17:08:22;;;;;;;6.35;3.30;;;;;;;14.51;87.71;97976.41;4229737;82;21858;-82
2022/09/16 17:14:28;;;;;;;4.70;3.05;;;;;;;14.44;87.81;97989.55;4262926;82;21020;-82
2022/09/16 17:20:30;;;;;;;6.97;3.87;;;;;;;14.43;88.49;97977.76;4346574;82;21308;-82
2022/09/16 17:26:32;;;;;;;9.30;4.35;;;;;;;14.31;88.86;97981.74;4257999;82;21020;-82
2022/09/16 17:32:34;;;;;;;6.60;3.87;;;;;;;14.14;89.34;97972.00;4260835;82;21032;-82
2022/09/16 17:38:36;;;;;;;6.60;4.42;;;;;;;14.06;90.28;97984.95;4232655;82;21118;-82
2022/09/16 17:44:38;;;;;;;11.55;4.72;;;;;;;14.05;90.92;97975.13;4270882;83;21994;-82
2022/09/16 17:50:39;;;;;;;8.55;5.53;;;;;;;14.02;91.59;97982.26;4243723;82;21016;-82
2022/09/16 17:56:43;;;;;;;7.92;5.42;;;;;;;13.96;91.80;97972.94;4241569;82;21000;-82
2022/09/16 18:02:45;;;;;;;13.30;6.10;;;;;;;13.81;92.08;97986.00;4262772;82;20977;-82
2022/09/16 18:08:49;;;;;;;12.05;6.50;;;;;;;13.66;92.25;97998.42;4241474;82;20961;-82
2022/09/16 18:14:51;;;;;;;12.23;6.70;;;;;;;13.60;93.18;98001.48;4178944;83;21001;-82
2022/09/16 18:20:54;;;;;;;12.82;6.58;;;;;;;13.55;93.67;98010.20;4245365;83;20974;-82
2022/09/16 18:26:56;;;;;;;8.75;6.28;;;;;;;13.48;93.74;98000.70;4247845;82;21889;-82
2022/09/16 18:32:58;;;;;;;12.10;6.25;;;;;;;13.46;94.21;98005.25;4244153;82;20989;-82
2022/09/16 18:39:00;;;;;;;11.15;6.70;;;;;;;13.40;94.03;98003.39;4113386;82;9999845;-82
2022/09/16 18:45:02;;;;;;;11.12;6.72;;;;;;;13.24;94.45;98010.11;4229456;82;20982;-82
2022/09/16 18:51:04;;;;;;;11.15;5.92;;;;;;;13.22;95.04;98006.98;4248690;82;20966;-82
2022/09/16 18:57:08;;;;;;;14.13;6.58;;;;;;;13.14;95.12;98011.06;4210536;82;21013;-82
2022/09/16 19:03:09;;;;;;;8.78;5.53;;;;;;;12.91;94.96;98015.86;4245120;82;21052;-82
2022/09/16 19:09:39;;;;;;;9.18;6.80;;;;;;;12.87;95.21;98019.84;4247589;83;21001;-82
2022/09/16 19:15:40;;;;;;;12.13;6.97;;;;;;;12.73;95.00;98006.30;4274892;82;21414;-82
2022/09/16 19:21:43;;;;;;;12.53;7.22;;;;;;;12.53;95.47;98008.31;4244008;82;21053;-82
2022/09/16 19:27:44;;;;;;;13.85;8.03;;;;;;;12.45;96.05;98017.81;4239904;82;21021;-82
2022/09/16 19:33:46;;;;;;;11.65;7.10;;;;;;;12.36;95.87;98018.12;4189511;82;21044;-82
2022/09/16 19:39:48;;;;;;;10.23;6.33;;;;;;;12.21;95.79;98016.73;4115315;82;9999977;-82
2022/09/16 19:45:50;;;;;;;8.25;5.28;;;;;;;12.04;96.33;98010.84;4246367;84;21050;-82
2022/09/16 19:51:52;;;;;;;10.65;6.15;;;;;;;12.03;96.68;98009.27;4232484;82;21177;-82
2022/09/16 19:57:53;;;;;;;12.45;5.95;;;;;;;12.07;97.10;98009.44;4268084;82;21940;-82
2022/09/16 20:10:46;;;;;;;8.50;5.33;;;;;;;12.07;97.39;98018.25;4256949;82;21036;-82
2022/09/16 20:16:49;;;;;;;10.32;4.85;;;;;;;12.03;97.81;98015.54;4203603;82;21012;-82
2022/09/16 20:22:52;;;;;;;8.10;4.50;;;;;;;12.10;97.32;98016.06;4267086;82;21000;-82
2022/09/16 20:28:55;;;;;;;9.15;4.72;;;;;;;12.14;97.04;98009.94;4198193;83;21965;-82
2022/09/16 20:34:57;;;;;;;10.78;4.85;;;;;;;12.23;97.62;98019.86;4235140;82;21496;-82
2022/09/16 20:41:12;;;;;;;6.60;4.42;;;;;;;12.27;98.29;98015.09;4239719;82;21095;-82
2022/09/16 20:47:14;;;;;;;11.25;5.33;;;;;;;12.19;98.10;98017.14;4223251;83;20988;-81
2022/09/16 20:53:15;;;;;;;9.33;5.00;;;;;;;12.19;98.25;98025.95;4227660;82;21056;-82
2022/09/16 20:59:19;;;;;;;9.33;5.33;;;;;;;12.10;97.59;98018.23;4249558;82;21052;-82
2022/09/16 21:05:22;;;;;;;9.95;5.80;;;;;;;11.96;97.38;98018.95;4285290;82;21023;-82
2022/09/16 21:11:28;;;;;;;10.08;5.50;;;;;;;11.88;97.40;98033.92;4244104;82;20984;-82
2022/09/16 21:17:31;;;;;;;9.03;5.78;;;;;;;11.74;97.43;98034.05;4234056;82;21078;-82
2022/09/16 21:23:34;;;;;;;7.67;5.35;;;;;;;11.66;97.44;98038.81;4241239;82;21615;-82
2022/09/16 21:29:35;;;;;;;6.85;4.80;;;;;;;11.47;96.98;98053.61;4242253;82;21156;-82
2022/09/16 21:35:39;;;;;;;13.20;4.58;;;;;;;11.32;97.66;98050.80;4240275;82;21673;-81
2022/09/16 21:41:45;;;;;;;7.83;4.42;;;;;;;11.25;97.70;98050.83;4231023;82;21048;-82
2022/09/16 21:47:47;;;;;;;7.45;4.50;;;;;;;11.18;98.21;98053.05;4227284;82;21566;-82
2022/09/16 21:53:49;;;;;;;5.55;4.00;;;;;;;11.17;98.45;98053.42;4232460;82;21069;-81
2022/09/16 21:59:50;;;;;;;7.10;4.72;;;;;;;11.09;99.11;98054.06;4228567;82;21571;-81
2022/09/16 22:05:52;;;;;;;6.87;4.85;;;;;;;11.02;98.70;98056.85;4238527;82;21106;-81
2022/09/16 22:11:54;;;;;;;8.28;5.12;;;;;;;11.05;99.41;98050.00;4240674;82;21644;-81
2022/09/16 22:17:57;;;;;;;10.93;5.60;;;;;;;10.98;98.81;98046.49;4230462;82;21001;-81
2022/09/16 22:24:01;;;;;;;9.53;5.22;;;;;;;10.84;98.52;98037.77;4247922;82;20945;-81
2022/09/16 22:30:06;;;;;;;8.88;5.47;;;;;;;10.79;98.70;98045.64;4233408;82;21152;-82
2022/09/16 22:36:12;;;;;;;9.23;6.00;;;;;;;10.66;98.45;98046.67;4242155;82;21041;-82
2022/09/16 22:42:31;;;;;;;7.22;4.87;;;;;;;10.37;98.58;98056.73;4229404;82;21918;-81
2022/09/16 22:48:33;;;;;;;8.85;4.90;;;;;;;10.39;99.23;98060.64;4228655;82;20993;-81
2022/09/16 22:54:50;;;;;;;11.43;5.03;;;;;;;10.34;99.37;98061.62;4242547;82;21644;-81
2022/09/16 23:00:54;;;;;;;7.15;4.50;;;;;;;10.40;100.00;98061.41;4248892;82;21005;-81
2022/09/16 23:06:56;;;;;;;8.70;4.58;;;;;;;10.37;99.64;98064.36;4306415;81;21051;-82
2022/09/16 23:12:58;;;;;;;10.93;5.22;;;;;;;10.26;100.00;98069.08;4345857;81;21888;-81
2022/09/16 23:19:02;;;;;;;6.53;5.10;;;;;;;10.28;100.00;98065.37;4309009;81;21007;-81
2022/09/16 23:25:06;;;;;;;8.48;4.78;;;;;;;10.22;100.00;98049.17;4271979;82;21144;-82
2022/09/16 23:31:12;;;;;;;6.90;4.30;;;;;;;10.23;100.00;98045.83;4266155;82;21042;-82
2022/09/16 23:37:13;;;;;;;7.60;4.33;;;;;;;10.31;100.00;98041.33;4278331;82;21622;-82
2022/09/16 23:43:15;;;;;;;6.12;4.12;;;;;;;10.25;100.00;98042.91;4265893;82;21020;-81
2022/09/16 23:49:19;;;;;;;8.78;5.55;;;;;;;10.11;100.00;98046.26;4246220;82;21986;-81
2022/09/16 23:55:20;;;;;;;6.85;4.78;;;;;;;10.13;100.00;98050.15;4264076;82;21027;-81
